sensor_id;sensor_type;location;lat;lon;timestamp;temperature;humidity
71879;DHT22;59755;43.834;4.364;2023-04-03T00:00:04;12.60;51.90
71879;DHT22;59755;43.834;4.364;2023-04-03T00:02:30;12.60;51.60
71879;DHT22;59755;43.834;4.364;2023-04-03T00:04:55;12.60;51.60
71879;DHT22;59755;43.834;4.364;2023-04-03T00:07:21;12.50;51.90
71879;DHT22;59755;43.834;4.364;2023-04-03T00:09:46;12.50;51.90
71879;DHT22;59755;43.834;4.364;2023-04-03T00:12:12;12.40;52.20
71879;DHT22;59755;43.834;4.364;2023-04-03T00:14:38;12.40;52.30
71879;DHT22;59755;43.834;4.364;2023-04-03T00:17:03;12.40;52.10
71879;DHT22;59755;43.834;4.364;2023-04-03T00:19:29;12.30;52.30
71879;DHT22;59755;43.834;4.364;2023-04-03T00:21:54;12.30;52.30
71879;DHT22;59755;43.834;4.364;2023-04-03T00:24:20;12.40;52.20
71879;DHT22;59755;43.834;4.364;2023-04-03T00:26:46;12.40;51.70
71879;DHT22;59755;43.834;4.364;2023-04-03T00:29:11;12.40;51.80
71879;DHT22;59755;43.834;4.364;2023-04-03T00:31:37;12.40;51.70
71879;DHT22;59755;43.834;4.364;2023-04-03T00:34:03;12.40;51.60
71879;DHT22;59755;43.834;4.364;2023-04-03T00:36:28;12.30;51.80
71879;DHT22;59755;43.834;4.364;2023-04-03T00:38:54;12.30;51.90
71879;DHT22;59755;43.834;4.364;2023-04-03T00:41:19;12.30;51.80
71879;DHT22;59755;43.834;4.364;2023-04-03T00:43:46;12.30;51.80
71879;DHT22;59755;43.834;4.364;2023-04-03T00:46:12;12.30;51.60
71879;DHT22;59755;43.834;4.364;2023-04-03T00:48:39;12.40;51.60
71879;DHT22;59755;43.834;4.364;2023-04-03T00:51:06;12.40;51.50
71879;DHT22;59755;43.834;4.364;2023-04-03T00:53:33;12.40;51.30
71879;DHT22;59755;43.834;4.364;2023-04-03T00:56:00;12.40;51.30
71879;DHT22;59755;43.834;4.364;2023-04-03T00:58:30;12.40;51.50
71879;DHT22;59755;43.834;4.364;2023-04-03T01:00:58;12.30;51.60
71879;DHT22;59755;43.834;4.364;2023-04-03T01:03:24;12.30;51.50
71879;DHT22;59755;43.834;4.364;2023-04-03T01:05:49;12.30;51.60
71879;DHT22;59755;43.834;4.364;2023-04-03T01:08:15;12.20;51.70
71879;DHT22;59755;43.834;4.364;2023-04-03T01:10:41;12.20;51.70
71879;DHT22;59755;43.834;4.364;2023-04-03T01:13:24;12.20;51.60
71879;DHT22;59755;43.834;4.364;2023-04-03T01:15:50;12.20;51.70
71879;DHT22;59755;43.834;4.364;2023-04-03T01:18:15;12.20;51.90
71879;DHT22;59755;43.834;4.364;2023-04-03T01:25:33;12.10;52.10
71879;DHT22;59755;43.834;4.364;2023-04-03T01:27:59;12.10;52.10
71879;DHT22;59755;43.834;4.364;2023-04-03T01:30:26;12.00;52.30
71879;DHT22;59755;43.834;4.364;2023-04-03T01:32:53;12.00;52.40
71879;DHT22;59755;43.834;4.364;2023-04-03T01:35:18;12.00;52.30
71879;DHT22;59755;43.834;4.364;2023-04-03T01:37:44;11.90;52.60
71879;DHT22;59755;43.834;4.364;2023-04-03T01:40:10;11.90;52.70
71879;DHT22;59755;43.834;4.364;2023-04-03T01:42:36;11.90;52.70
71879;DHT22;59755;43.834;4.364;2023-04-03T01:45:01;11.90;52.60
71879;DHT22;59755;43.834;4.364;2023-04-03T01:47:27;11.90;52.70
71879;DHT22;59755;43.834;4.364;2023-04-03T01:49:52;12.00;52.50
71879;DHT22;59755;43.834;4.364;2023-04-03T01:52:18;12.00;52.40
71879;DHT22;59755;43.834;4.364;2023-04-03T01:54:43;12.00;52.50
71879;DHT22;59755;43.834;4.364;2023-04-03T01:57:09;12.00;52.40
71879;DHT22;59755;43.834;4.364;2023-04-03T01:59:35;11.90;52.60
71879;DHT22;59755;43.834;4.364;2023-04-03T02:02:01;12.00;52.70
71879;DHT22;59755;43.834;4.364;2023-04-03T02:04:26;11.90;52.80
71879;DHT22;59755;43.834;4.364;2023-04-03T02:06:52;11.80;52.90
71879;DHT22;59755;43.834;4.364;2023-04-03T02:09:17;11.90;53.00
71879;DHT22;59755;43.834;4.364;2023-04-03T02:11:43;11.90;52.90
71879;DHT22;59755;43.834;4.364;2023-04-03T02:14:09;11.80;53.10
71879;DHT22;59755;43.834;4.364;2023-04-03T02:16:34;11.90;53.00
71879;DHT22;59755;43.834;4.364;2023-04-03T02:19:00;11.80;53.20
71879;DHT22;59755;43.834;4.364;2023-04-03T02:21:26;11.80;53.30
71879;DHT22;59755;43.834;4.364;2023-04-03T02:23:51;11.80;53.50
71879;DHT22;59755;43.834;4.364;2023-04-03T02:26:17;11.60;53.80
71879;DHT22;59755;43.834;4.364;2023-04-03T02:28:43;11.60;53.90
71879;DHT22;59755;43.834;4.364;2023-04-03T02:31:09;11.60;53.90
71879;DHT22;59755;43.834;4.364;2023-04-03T02:33:35;11.60;53.90
71879;DHT22;59755;43.834;4.364;2023-04-03T02:36:02;11.70;53.70
71879;DHT22;59755;43.834;4.364;2023-04-03T02:38:28;11.70;53.80
71879;DHT22;59755;43.834;4.364;2023-04-03T02:40:53;11.60;53.80
71879;DHT22;59755;43.834;4.364;2023-04-03T02:43:19;11.60;54.00
71879;DHT22;59755;43.834;4.364;2023-04-03T02:45:44;11.60;53.90
71879;DHT22;59755;43.834;4.364;2023-04-03T02:48:10;11.60;54.10
71879;DHT22;59755;43.834;4.364;2023-04-03T02:50:36;11.50;54.10
71879;DHT22;59755;43.834;4.364;2023-04-03T02:53:01;11.50;54.20
71879;DHT22;59755;43.834;4.364;2023-04-03T02:55:27;11.50;54.20
71879;DHT22;59755;43.834;4.364;2023-04-03T02:57:53;11.50;54.20
71879;DHT22;59755;43.834;4.364;2023-04-03T03:00:18;11.60;54.00
71879;DHT22;59755;43.834;4.364;2023-04-03T03:02:44;11.50;54.00
71879;DHT22;59755;43.834;4.364;2023-04-03T03:05:10;11.50;54.10
71879;DHT22;59755;43.834;4.364;2023-04-03T03:07:35;11.60;54.00
71879;DHT22;59755;43.834;4.364;2023-04-03T03:10:01;11.50;54.10
71879;DHT22;59755;43.834;4.364;2023-04-03T03:12:26;11.50;54.10
71879;DHT22;59755;43.834;4.364;2023-04-03T03:14:52;11.60;54.00
71879;DHT22;59755;43.834;4.364;2023-04-03T03:17:17;11.60;53.90
71879;DHT22;59755;43.834;4.364;2023-04-03T03:19:43;11.70;53.70
71879;DHT22;59755;43.834;4.364;2023-04-03T03:22:11;11.60;53.70
71879;DHT22;59755;43.834;4.364;2023-04-03T03:24:36;11.60;53.80
71879;DHT22;59755;43.834;4.364;2023-04-03T03:27:02;11.60;53.70
71879;DHT22;59755;43.834;4.364;2023-04-03T03:29:28;11.50;54.00
71879;DHT22;59755;43.834;4.364;2023-04-03T03:31:53;11.50;54.30
71879;DHT22;59755;43.834;4.364;2023-04-03T03:34:19;11.50;54.20
71879;DHT22;59755;43.834;4.364;2023-04-03T03:36:44;11.50;54.20
71879;DHT22;59755;43.834;4.364;2023-04-03T03:39:10;11.40;54.50
71879;DHT22;59755;43.834;4.364;2023-04-03T03:41:36;11.40;54.60
71879;DHT22;59755;43.834;4.364;2023-04-03T03:44:01;11.40;54.50
71879;DHT22;59755;43.834;4.364;2023-04-03T03:46:27;11.40;54.40
71879;DHT22;59755;43.834;4.364;2023-04-03T03:48:52;11.40;54.50
71879;DHT22;59755;43.834;4.364;2023-04-03T03:51:18;11.40;54.40
71879;DHT22;59755;43.834;4.364;2023-04-03T03:53:43;11.30;54.60
71879;DHT22;59755;43.834;4.364;2023-04-03T03:56:09;11.30;54.60
71879;DHT22;59755;43.834;4.364;2023-04-03T03:58:35;11.30;54.50
71879;DHT22;59755;43.834;4.364;2023-04-03T04:01:01;11.40;54.30
71879;DHT22;59755;43.834;4.364;2023-04-03T04:03:27;11.40;54.30
71879;DHT22;59755;43.834;4.364;2023-04-03T04:05:52;11.50;54.10
71879;DHT22;59755;43.834;4.364;2023-04-03T04:08:18;11.50;54.00
71879;DHT22;59755;43.834;4.364;2023-04-03T04:10:44;11.40;54.10
71879;DHT22;59755;43.834;4.364;2023-04-03T04:13:09;11.40;54.00
71879;DHT22;59755;43.834;4.364;2023-04-03T04:15:35;11.40;54.10
71879;DHT22;59755;43.834;4.364;2023-04-03T04:18:00;11.50;53.90
71879;DHT22;59755;43.834;4.364;2023-04-03T04:20:26;11.50;53.80
71879;DHT22;59755;43.834;4.364;2023-04-03T04:22:52;11.50;54.00
71879;DHT22;59755;43.834;4.364;2023-04-03T04:25:17;11.50;53.80
71879;DHT22;59755;43.834;4.364;2023-04-03T04:27:43;11.50;53.80
71879;DHT22;59755;43.834;4.364;2023-04-03T04:30:08;11.40;53.80
71879;DHT22;59755;43.834;4.364;2023-04-03T04:32:35;11.40;54.10
71879;DHT22;59755;43.834;4.364;2023-04-03T04:35:00;11.30;54.20
71879;DHT22;59755;43.834;4.364;2023-04-03T04:37:26;11.30;54.20
71879;DHT22;59755;43.834;4.364;2023-04-03T04:39:51;11.40;54.20
71879;DHT22;59755;43.834;4.364;2023-04-03T04:42:17;11.30;54.10
71879;DHT22;59755;43.834;4.364;2023-04-03T04:44:43;11.30;54.30
71879;DHT22;59755;43.834;4.364;2023-04-03T04:47:08;11.30;54.40
71879;DHT22;59755;43.834;4.364;2023-04-03T04:49:34;11.30;54.50
71879;DHT22;59755;43.834;4.364;2023-04-03T04:51:59;11.30;54.70
71879;DHT22;59755;43.834;4.364;2023-04-03T04:54:25;11.20;55.00
71879;DHT22;59755;43.834;4.364;2023-04-03T04:56:50;11.10;55.30
71879;DHT22;59755;43.834;4.364;2023-04-03T04:59:16;11.10;55.20
71879;DHT22;59755;43.834;4.364;2023-04-03T05:01:42;11.10;55.30
71879;DHT22;59755;43.834;4.364;2023-04-03T05:04:07;11.10;55.60
71879;DHT22;59755;43.834;4.364;2023-04-03T05:06:33;11.00;55.50
71879;DHT22;59755;43.834;4.364;2023-04-03T05:09:00;11.00;55.30
71879;DHT22;59755;43.834;4.364;2023-04-03T05:11:26;11.00;55.30
71879;DHT22;59755;43.834;4.364;2023-04-03T05:13:52;11.00;55.40
71879;DHT22;59755;43.834;4.364;2023-04-03T05:16:17;11.00;55.60
71879;DHT22;59755;43.834;4.364;2023-04-03T05:18:43;10.90;55.70
71879;DHT22;59755;43.834;4.364;2023-04-03T05:21:08;11.00;55.30
71879;DHT22;59755;43.834;4.364;2023-04-03T05:23:34;11.00;55.40
71879;DHT22;59755;43.834;4.364;2023-04-03T05:25:59;11.10;55.10
71879;DHT22;59755;43.834;4.364;2023-04-03T05:28:25;11.00;55.40
71879;DHT22;59755;43.834;4.364;2023-04-03T05:30:57;11.00;55.30
71879;DHT22;59755;43.834;4.364;2023-04-03T05:33:23;11.00;55.40
71879;DHT22;59755;43.834;4.364;2023-04-03T05:35:48;11.00;55.30
71879;DHT22;59755;43.834;4.364;2023-04-03T05:38:14;11.00;55.30
71879;DHT22;59755;43.834;4.364;2023-04-03T05:40:40;11.00;55.30
71879;DHT22;59755;43.834;4.364;2023-04-03T05:43:05;11.10;55.20
71879;DHT22;59755;43.834;4.364;2023-04-03T05:45:31;11.10;55.20
71879;DHT22;59755;43.834;4.364;2023-04-03T05:47:57;11.10;55.30
71879;DHT22;59755;43.834;4.364;2023-04-03T05:50:23;11.20;55.50
71879;DHT22;59755;43.834;4.364;2023-04-03T05:52:49;11.20;55.20
71879;DHT22;59755;43.834;4.364;2023-04-03T05:55:16;11.30;54.90
71879;DHT22;59755;43.834;4.364;2023-04-03T05:57:42;11.30;54.90
71879;DHT22;59755;43.834;4.364;2023-04-03T06:00:08;11.30;54.80
71879;DHT22;59755;43.834;4.364;2023-04-03T06:02:35;11.30;54.80
71879;DHT22;59755;43.834;4.364;2023-04-03T06:05:01;11.30;54.70
71879;DHT22;59755;43.834;4.364;2023-04-03T06:07:26;11.30;54.60
71879;DHT22;59755;43.834;4.364;2023-04-03T06:09:54;11.30;54.80
71879;DHT22;59755;43.834;4.364;2023-04-03T06:12:21;11.40;54.70
71879;DHT22;59755;43.834;4.364;2023-04-03T06:14:46;11.40;54.60
71879;DHT22;59755;43.834;4.364;2023-04-03T06:17:13;11.50;54.40
71879;DHT22;59755;43.834;4.364;2023-04-03T06:19:39;11.50;54.30
71879;DHT22;59755;43.834;4.364;2023-04-03T06:22:05;11.60;54.10
71879;DHT22;59755;43.834;4.364;2023-04-03T06:24:31;11.60;54.00
71879;DHT22;59755;43.834;4.364;2023-04-03T06:26:56;11.70;53.80
71879;DHT22;59755;43.834;4.364;2023-04-03T06:29:22;11.60;53.90
71879;DHT22;59755;43.834;4.364;2023-04-03T06:31:48;11.70;53.60
71879;DHT22;59755;43.834;4.364;2023-04-03T06:34:14;11.70;53.60
71879;DHT22;59755;43.834;4.364;2023-04-03T06:36:40;11.70;53.40
71879;DHT22;59755;43.834;4.364;2023-04-03T06:39:06;11.90;53.40
71879;DHT22;59755;43.834;4.364;2023-04-03T06:41:32;11.90;53.10
71879;DHT22;59755;43.834;4.364;2023-04-03T06:43:58;12.00;53.20
71879;DHT22;59755;43.834;4.364;2023-04-03T06:46:24;12.00;52.90
71879;DHT22;59755;43.834;4.364;2023-04-03T06:48:50;12.10;53.00
71879;DHT22;59755;43.834;4.364;2023-04-03T06:51:20;12.10;53.10
71879;DHT22;59755;43.834;4.364;2023-04-03T06:53:47;12.10;53.20
71879;DHT22;59755;43.834;4.364;2023-04-03T06:56:13;12.20;53.30
71879;DHT22;59755;43.834;4.364;2023-04-03T06:58:39;12.30;52.90
71879;DHT22;59755;43.834;4.364;2023-04-03T07:01:04;12.40;52.60
71879;DHT22;59755;43.834;4.364;2023-04-03T07:03:30;12.50;52.40
71879;DHT22;59755;43.834;4.364;2023-04-03T07:05:56;12.50;52.40
71879;DHT22;59755;43.834;4.364;2023-04-03T07:08:22;12.60;52.50
71879;DHT22;59755;43.834;4.364;2023-04-03T07:10:48;12.60;52.60
71879;DHT22;59755;43.834;4.364;2023-04-03T07:13:15;12.60;52.90
71879;DHT22;59755;43.834;4.364;2023-04-03T07:15:40;12.60;53.20
71879;DHT22;59755;43.834;4.364;2023-04-03T07:18:06;12.60;53.60
71879;DHT22;59755;43.834;4.364;2023-04-03T07:20:32;12.50;53.70
71879;DHT22;59755;43.834;4.364;2023-04-03T07:22:58;12.60;53.80
71879;DHT22;59755;43.834;4.364;2023-04-03T07:25:23;12.70;53.70
71879;DHT22;59755;43.834;4.364;2023-04-03T07:27:49;12.80;53.60
71879;DHT22;59755;43.834;4.364;2023-04-03T07:30:14;12.70;53.70
71879;DHT22;59755;43.834;4.364;2023-04-03T07:32:40;12.70;54.10
71879;DHT22;59755;43.834;4.364;2023-04-03T07:35:06;12.80;53.60
71879;DHT22;59755;43.834;4.364;2023-04-03T07:37:32;12.80;53.40
71879;DHT22;59755;43.834;4.364;2023-04-03T07:39:57;12.90;53.40
71879;DHT22;59755;43.834;4.364;2023-04-03T07:42:24;12.90;53.40
71879;DHT22;59755;43.834;4.364;2023-04-03T07:44:53;12.80;53.60
71879;DHT22;59755;43.834;4.364;2023-04-03T07:47:18;13.00;53.60
71879;DHT22;59755;43.834;4.364;2023-04-03T07:49:45;13.00;53.30
71879;DHT22;59755;43.834;4.364;2023-04-03T07:52:11;13.10;53.20
71879;DHT22;59755;43.834;4.364;2023-04-03T07:54:37;13.20;53.40
71879;DHT22;59755;43.834;4.364;2023-04-03T07:57:02;13.30;53.50
71879;DHT22;59755;43.834;4.364;2023-04-03T07:59:28;13.50;53.10
71879;DHT22;59755;43.834;4.364;2023-04-03T08:01:54;13.50;52.70
71879;DHT22;59755;43.834;4.364;2023-04-03T08:04:20;13.60;52.80
71879;DHT22;59755;43.834;4.364;2023-04-03T08:06:46;13.60;52.10
71879;DHT22;59755;43.834;4.364;2023-04-03T08:09:11;13.60;52.40
71879;DHT22;59755;43.834;4.364;2023-04-03T08:11:39;13.50;52.30
71879;DHT22;59755;43.834;4.364;2023-04-03T08:14:04;13.70;52.30
71879;DHT22;59755;43.834;4.364;2023-04-03T08:16:30;13.80;51.90
71879;DHT22;59755;43.834;4.364;2023-04-03T08:18:55;13.90;51.70
71879;DHT22;59755;43.834;4.364;2023-04-03T08:21:21;13.90;51.40
71879;DHT22;59755;43.834;4.364;2023-04-03T08:23:48;14.00;51.10
71879;DHT22;59755;43.834;4.364;2023-04-03T08:26:17;14.10;51.10
71879;DHT22;59755;43.834;4.364;2023-04-03T08:28:43;14.10;51.00
71879;DHT22;59755;43.834;4.364;2023-04-03T08:31:10;14.00;51.30
71879;DHT22;59755;43.834;4.364;2023-04-03T08:33:37;14.10;51.00
71879;DHT22;59755;43.834;4.364;2023-04-03T08:36:04;14.10;51.00
71879;DHT22;59755;43.834;4.364;2023-04-03T08:38:29;14.20;50.80
71879;DHT22;59755;43.834;4.364;2023-04-03T08:41:02;14.30;50.50
71879;DHT22;59755;43.834;4.364;2023-04-03T08:43:37;14.40;50.60
71879;DHT22;59755;43.834;4.364;2023-04-03T08:46:05;14.40;50.50
71879;DHT22;59755;43.834;4.364;2023-04-03T08:48:39;14.40;50.20
71879;DHT22;59755;43.834;4.364;2023-04-03T08:51:16;14.50;50.20
71879;DHT22;59755;43.834;4.364;2023-04-03T08:53:48;14.50;50.30
71879;DHT22;59755;43.834;4.364;2023-04-03T08:56:15;14.40;50.20
71879;DHT22;59755;43.834;4.364;2023-04-03T08:58:48;14.50;50.30
71879;DHT22;59755;43.834;4.364;2023-04-03T09:01:19;14.60;50.20
71879;DHT22;59755;43.834;4.364;2023-04-03T09:03:45;14.70;50.00
71879;DHT22;59755;43.834;4.364;2023-04-03T09:06:13;14.80;50.00
71879;DHT22;59755;43.834;4.364;2023-04-03T09:11:24;15.00;49.30
71879;DHT22;59755;43.834;4.364;2023-04-03T09:21:59;15.40;47.80
71879;DHT22;59755;43.834;4.364;2023-04-03T09:24:27;15.60;47.40
71879;DHT22;59755;43.834;4.364;2023-04-03T09:26:56;15.80;47.40
71879;DHT22;59755;43.834;4.364;2023-04-03T09:29:25;15.80;47.50
71879;DHT22;59755;43.834;4.364;2023-04-03T09:32:00;15.90;47.00
71879;DHT22;59755;43.834;4.364;2023-04-03T09:34:27;15.90;46.90
71879;DHT22;59755;43.834;4.364;2023-04-03T09:36:54;15.80;47.00
71879;DHT22;59755;43.834;4.364;2023-04-03T09:39:29;16.00;47.00
71879;DHT22;59755;43.834;4.364;2023-04-03T09:44:22;15.90;46.50
71879;DHT22;59755;43.834;4.364;2023-04-03T09:46:48;15.90;46.60
71879;DHT22;59755;43.834;4.364;2023-04-03T09:49:14;16.00;46.50
71879;DHT22;59755;43.834;4.364;2023-04-03T09:51:39;16.20;46.20
71879;DHT22;59755;43.834;4.364;2023-04-03T09:56:54;16.60;45.20
71879;DHT22;59755;43.834;4.364;2023-04-03T09:59:21;16.60;45.00
71879;DHT22;59755;43.834;4.364;2023-04-03T10:01:57;16.70;44.50
71879;DHT22;59755;43.834;4.364;2023-04-03T10:04:23;16.80;44.30
71879;DHT22;59755;43.834;4.364;2023-04-03T10:06:50;16.70;45.00
71879;DHT22;59755;43.834;4.364;2023-04-03T10:12:34;17.00;44.00
71879;DHT22;59755;43.834;4.364;2023-04-03T10:15:00;17.10;44.10
71879;DHT22;59755;43.834;4.364;2023-04-03T10:20:17;17.40;43.10
71879;DHT22;59755;43.834;4.364;2023-04-03T10:25:21;17.60;42.60
71879;DHT22;59755;43.834;4.364;2023-04-03T10:27:53;17.20;42.70
71879;DHT22;59755;43.834;4.364;2023-04-03T10:30:24;17.10;42.90
71879;DHT22;59755;43.834;4.364;2023-04-03T10:33:17;17.50;42.00
71879;DHT22;59755;43.834;4.364;2023-04-03T10:35:48;17.90;41.30
71879;DHT22;59755;43.834;4.364;2023-04-03T10:44:22;19.00;38.90
71879;DHT22;59755;43.834;4.364;2023-04-03T10:46:53;19.60;37.40
71879;DHT22;59755;43.834;4.364;2023-04-03T10:51:57;20.90;36.10
71879;DHT22;59755;43.834;4.364;2023-04-03T10:54:29;21.10;35.20
71879;DHT22;59755;43.834;4.364;2023-04-03T10:56:57;21.90;34.40
71879;DHT22;59755;43.834;4.364;2023-04-03T11:02:06;22.30;33.60
71879;DHT22;59755;43.834;4.364;2023-04-03T11:04:34;22.40;33.10
71879;DHT22;59755;43.834;4.364;2023-04-03T11:07:02;22.60;32.60
71879;DHT22;59755;43.834;4.364;2023-04-03T11:09:33;21.30;34.30
71879;DHT22;59755;43.834;4.364;2023-04-03T11:14:35;22.40;33.00
71879;DHT22;59755;43.834;4.364;2023-04-03T11:17:06;23.40;32.10
71879;DHT22;59755;43.834;4.364;2023-04-03T11:19:39;23.80;31.40
71879;DHT22;59755;43.834;4.364;2023-04-03T11:24:42;22.70;32.10
71879;DHT22;59755;43.834;4.364;2023-04-03T11:27:11;23.00;32.00
71879;DHT22;59755;43.834;4.364;2023-04-03T11:29:41;22.70;32.40
71879;DHT22;59755;43.834;4.364;2023-04-03T11:32:48;23.40;31.60
71879;DHT22;59755;43.834;4.364;2023-04-03T11:35:02;23.80;31.20
71879;DHT22;59755;43.834;4.364;2023-04-03T11:37:33;23.50;31.40
71879;DHT22;59755;43.834;4.364;2023-04-03T11:40:04;24.60;30.50
71879;DHT22;59755;43.834;4.364;2023-04-03T11:42:32;24.50;29.80
71879;DHT22;59755;43.834;4.364;2023-04-03T11:47:47;24.20;30.20
71879;DHT22;59755;43.834;4.364;2023-04-03T11:52:59;24.40;29.70
71879;DHT22;59755;43.834;4.364;2023-04-03T11:55:41;24.50;29.60
71879;DHT22;59755;43.834;4.364;2023-04-03T11:58:17;24.30;29.90
71879;DHT22;59755;43.834;4.364;2023-04-03T12:16:20;26.00;28.00
71879;DHT22;59755;43.834;4.364;2023-04-03T12:26:40;26.30;27.20
71879;DHT22;59755;43.834;4.364;2023-04-03T12:29:14;27.30;26.40
71879;DHT22;59755;43.834;4.364;2023-04-03T12:31:46;26.10;27.30
71879;DHT22;59755;43.834;4.364;2023-04-03T12:39:43;26.20;27.50
71879;DHT22;59755;43.834;4.364;2023-04-03T12:42:16;25.40;28.30
71879;DHT22;59755;43.834;4.364;2023-04-03T12:47:21;24.70;28.70
71879;DHT22;59755;43.834;4.364;2023-04-03T12:49:48;26.00;27.30
71879;DHT22;59755;43.834;4.364;2023-04-03T12:52:19;26.70;26.50
71879;DHT22;59755;43.834;4.364;2023-04-03T12:54:47;26.80;26.50
71879;DHT22;59755;43.834;4.364;2023-04-03T12:57:17;27.80;25.50
71879;DHT22;59755;43.834;4.364;2023-04-03T12:59:43;26.50;26.30
71879;DHT22;59755;43.834;4.364;2023-04-03T13:04:45;26.50;26.40
71879;DHT22;59755;43.834;4.364;2023-04-03T13:10:02;25.90;26.40
71879;DHT22;59755;43.834;4.364;2023-04-03T13:12:28;26.10;26.60
71879;DHT22;59755;43.834;4.364;2023-04-03T13:14:58;26.40;26.00
71879;DHT22;59755;43.834;4.364;2023-04-03T13:17:24;25.90;26.20
71879;DHT22;59755;43.834;4.364;2023-04-03T13:19:50;25.80;26.20
71879;DHT22;59755;43.834;4.364;2023-04-03T13:24:45;25.10;27.10
71879;DHT22;59755;43.834;4.364;2023-04-03T13:27:12;26.30;26.30
71879;DHT22;59755;43.834;4.364;2023-04-03T13:29:37;26.40;26.00
71879;DHT22;59755;43.834;4.364;2023-04-03T13:32:04;26.50;26.00
71879;DHT22;59755;43.834;4.364;2023-04-03T13:34:38;28.10;24.90
71879;DHT22;59755;43.834;4.364;2023-04-03T13:37:05;27.90;24.80
71879;DHT22;59755;43.834;4.364;2023-04-03T13:39:37;27.20;25.20
71879;DHT22;59755;43.834;4.364;2023-04-03T13:42:16;26.50;25.90
71879;DHT22;59755;43.834;4.364;2023-04-03T13:44:42;27.00;25.40
71879;DHT22;59755;43.834;4.364;2023-04-03T13:49:38;27.60;25.10
71879;DHT22;59755;43.834;4.364;2023-04-03T13:54:50;27.40;25.50
71879;DHT22;59755;43.834;4.364;2023-04-03T13:57:17;28.00;25.10
71879;DHT22;59755;43.834;4.364;2023-04-03T13:59:43;28.30;24.60
71879;DHT22;59755;43.834;4.364;2023-04-03T14:07:10;28.00;24.70
71879;DHT22;59755;43.834;4.364;2023-04-03T14:09:36;29.30;23.80
71879;DHT22;59755;43.834;4.364;2023-04-03T14:12:04;29.60;23.50
71879;DHT22;59755;43.834;4.364;2023-04-03T14:14:32;28.30;24.90
71879;DHT22;59755;43.834;4.364;2023-04-03T14:16:59;27.40;25.80
71879;DHT22;59755;43.834;4.364;2023-04-03T14:21:53;26.80;26.50
71879;DHT22;59755;43.834;4.364;2023-04-03T14:24:20;27.40;26.00
71879;DHT22;59755;43.834;4.364;2023-04-03T14:26:45;26.60;26.60
71879;DHT22;59755;43.834;4.364;2023-04-03T14:29:11;25.60;27.60
71879;DHT22;59755;43.834;4.364;2023-04-03T14:31:37;26.00;27.40
71879;DHT22;59755;43.834;4.364;2023-04-03T14:34:03;25.40;27.90
71879;DHT22;59755;43.834;4.364;2023-04-03T14:36:29;26.30;27.30
71879;DHT22;59755;43.834;4.364;2023-04-03T14:38:55;25.90;27.10
71879;DHT22;59755;43.834;4.364;2023-04-03T14:41:22;25.90;27.20
71879;DHT22;59755;43.834;4.364;2023-04-03T14:43:48;25.20;27.90
71879;DHT22;59755;43.834;4.364;2023-04-03T14:46:15;25.00;28.30
71879;DHT22;59755;43.834;4.364;2023-04-03T14:48:42;25.30;28.00
71879;DHT22;59755;43.834;4.364;2023-04-03T14:51:09;25.10;28.00
71879;DHT22;59755;43.834;4.364;2023-04-03T14:53:35;24.30;28.80
71879;DHT22;59755;43.834;4.364;2023-04-03T14:56:02;24.20;29.10
71879;DHT22;59755;43.834;4.364;2023-04-03T14:58:27;24.10;29.40
71879;DHT22;59755;43.834;4.364;2023-04-03T15:00:53;24.30;29.10
71879;DHT22;59755;43.834;4.364;2023-04-03T15:03:20;25.20;28.20
71879;DHT22;59755;43.834;4.364;2023-04-03T15:05:46;23.80;28.90
71879;DHT22;59755;43.834;4.364;2023-04-03T15:08:17;22.80;30.00
71879;DHT22;59755;43.834;4.364;2023-04-03T15:10:43;23.10;30.00
71879;DHT22;59755;43.834;4.364;2023-04-03T15:13:09;22.80;30.60
71879;DHT22;59755;43.834;4.364;2023-04-03T15:15:36;22.30;31.40
71879;DHT22;59755;43.834;4.364;2023-04-03T15:18:02;21.40;32.60
71879;DHT22;59755;43.834;4.364;2023-04-03T15:20:28;20.70;33.40
71879;DHT22;59755;43.834;4.364;2023-04-03T15:22:55;20.20;34.10
71879;DHT22;59755;43.834;4.364;2023-04-03T15:25:22;19.80;34.50
71879;DHT22;59755;43.834;4.364;2023-04-03T15:27:48;20.00;34.50
71879;DHT22;59755;43.834;4.364;2023-04-03T15:30:14;19.50;35.40
71879;DHT22;59755;43.834;4.364;2023-04-03T15:32:40;19.20;35.80
71879;DHT22;59755;43.834;4.364;2023-04-03T15:35:06;18.90;36.00
71879;DHT22;59755;43.834;4.364;2023-04-03T15:37:31;19.00;35.60
71879;DHT22;59755;43.834;4.364;2023-04-03T15:39:57;18.80;35.80
71879;DHT22;59755;43.834;4.364;2023-04-03T15:42:23;18.90;35.70
71879;DHT22;59755;43.834;4.364;2023-04-03T15:44:48;18.60;36.00
71879;DHT22;59755;43.834;4.364;2023-04-03T15:47:14;18.30;36.50
71879;DHT22;59755;43.834;4.364;2023-04-03T15:49:39;18.20;36.70
71879;DHT22;59755;43.834;4.364;2023-04-03T15:52:05;18.00;36.90
71879;DHT22;59755;43.834;4.364;2023-04-03T15:54:31;17.80;37.40
71879;DHT22;59755;43.834;4.364;2023-04-03T15:56:57;17.70;37.70
71879;DHT22;59755;43.834;4.364;2023-04-03T15:59:22;17.70;37.90
71879;DHT22;59755;43.834;4.364;2023-04-03T16:01:48;17.70;37.50
71879;DHT22;59755;43.834;4.364;2023-04-03T16:04:14;17.70;37.40
71879;DHT22;59755;43.834;4.364;2023-04-03T16:06:40;17.60;37.50
71879;DHT22;59755;43.834;4.364;2023-04-03T16:09:06;17.50;37.50
71879;DHT22;59755;43.834;4.364;2023-04-03T16:11:31;17.40;37.90
71879;DHT22;59755;43.834;4.364;2023-04-03T16:13:57;17.40;38.00
71879;DHT22;59755;43.834;4.364;2023-04-03T16:16:23;17.50;38.10
71879;DHT22;59755;43.834;4.364;2023-04-03T16:18:49;17.40;38.30
71879;DHT22;59755;43.834;4.364;2023-04-03T16:21:15;17.40;37.90
71879;DHT22;59755;43.834;4.364;2023-04-03T16:23:41;17.30;38.00
71879;DHT22;59755;43.834;4.364;2023-04-03T16:26:07;17.10;38.10
71879;DHT22;59755;43.834;4.364;2023-04-03T16:28:33;17.30;37.90
71879;DHT22;59755;43.834;4.364;2023-04-03T16:30:59;17.00;38.20
71879;DHT22;59755;43.834;4.364;2023-04-03T16:33:25;17.20;38.10
71879;DHT22;59755;43.834;4.364;2023-04-03T16:35:50;16.90;38.50
71879;DHT22;59755;43.834;4.364;2023-04-03T16:38:17;16.90;38.60
71879;DHT22;59755;43.834;4.364;2023-04-03T16:40:44;16.90;38.80
71879;DHT22;59755;43.834;4.364;2023-04-03T16:43:09;16.90;38.80
71879;DHT22;59755;43.834;4.364;2023-04-03T16:45:35;16.90;38.60
71879;DHT22;59755;43.834;4.364;2023-04-03T16:48:01;16.70;38.70
71879;DHT22;59755;43.834;4.364;2023-04-03T16:50:26;16.60;39.10
71879;DHT22;59755;43.834;4.364;2023-04-03T16:52:52;16.60;38.80
71879;DHT22;59755;43.834;4.364;2023-04-03T16:55:18;16.50;39.20
71879;DHT22;59755;43.834;4.364;2023-04-03T16:57:43;16.50;39.00
71879;DHT22;59755;43.834;4.364;2023-04-03T17:00:09;16.70;38.70
71879;DHT22;59755;43.834;4.364;2023-04-03T17:02:35;16.70;40.10
71879;DHT22;59755;43.834;4.364;2023-04-03T17:05:00;16.50;42.40
71879;DHT22;59755;43.834;4.364;2023-04-03T17:07:26;16.40;42.70
71879;DHT22;59755;43.834;4.364;2023-04-03T17:09:51;16.30;42.80